Map

Track Data

SID SEASON NUMBER BASIN SUBBASIN NAME ISO_TIME NATURE LAT LON WMO_WIND WMO_PRES WMO_AGENCY TRACK_TYPE DIST2LAND LANDFALL IFLAG USA_AGENCY USA_ATCF_ID USA_LAT USA_LON USA_RECORD USA_STATUS USA_WIND USA_PRES USA_SSHS USA_R34_NE USA_R34_SE USA_R34_SW USA_R34_NW USA_R50_NE USA_R50_SE USA_R50_SW USA_R50_NW USA_R64_NE USA_R64_SE USA_R64_SW USA_R64_NW USA_POCI USA_ROCI USA_RMW USA_EYE TOKYO_LAT TOKYO_LON TOKYO_GRADE TOKYO_WIND TOKYO_PRES TOKYO_R50_DIR TOKYO_R50_LONG TOKYO_R50_SHORT TOKYO_R30_DIR TOKYO_R30_LONG TOKYO_R30_SHORT TOKYO_LAND CMA_LAT CMA_LON CMA_CAT CMA_WIND CMA_PRES HKO_LAT HKO_LON HKO_CAT HKO_WIND HKO_PRES NEWDELHI_LAT NEWDELHI_LON NEWDELHI_GRADE NEWDELHI_WIND NEWDELHI_PRES NEWDELHI_CI NEWDELHI_DP NEWDELHI_POCI REUNION_LAT REUNION_LON REUNION_TYPE REUNION_WIND REUNION_PRES REUNION_TNUM REUNION_CI REUNION_RMW REUNION_R34_NE REUNION_R34_SE REUNION_R34_SW REUNION_R34_NW REUNION_R50_NE REUNION_R50_SE REUNION_R50_SW REUNION_R50_NW REUNION_R64_NE REUNION_R64_SE REUNION_R64_SW REUNION_R64_NW BOM_LAT BOM_LON BOM_TYPE BOM_WIND BOM_PRES BOM_TNUM BOM_CI BOM_RMW BOM_R34_NE BOM_R34_SE BOM_R34_SW BOM_R34_NW BOM_R50_NE BOM_R50_SE BOM_R50_SW BOM_R50_NW BOM_R64_NE BOM_R64_SE BOM_R64_SW BOM_R64_NW BOM_ROCI BOM_POCI BOM_EYE BOM_POS_METHOD BOM_PRES_METHOD NADI_LAT NADI_LON NADI_CAT NADI_WIND NADI_PRES WELLINGTON_LAT WELLINGTON_LON WELLINGTON_WIND WELLINGTON_PRES DS824_LAT DS824_LON DS824_STAGE DS824_WIND DS824_PRES TD9636_LAT TD9636_LON TD9636_STAGE TD9636_WIND TD9636_PRES TD9635_LAT TD9635_LON TD9635_WIND TD9635_PRES TD9635_ROCI NEUMANN_LAT NEUMANN_LON NEUMANN_CLASS NEUMANN_WIND NEUMANN_PRES MLC_LAT MLC_LON MLC_CLASS MLC_WIND MLC_PRES USA_GUST BOM_GUST BOM_GUST_PER REUNION_GUST REUNION_GUST_PER USA_SEAHGT USA_SEARAD_NE USA_SEARAD_SE USA_SEARAD_SW USA_SEARAD_NW STORM_SPEED STORM_DIR
1944263N19276 1944 58 NA CS NOT_NAMED 1944-09-19 06:00:00 TS 19.3000 -83.6000 40 hurdat_atl main 249 226 O_____________ hurdat_atl AL081944 19.3000 -83.6000 TS 40 0 9 322
1944263N19276 1944 58 NA CS NOT_NAMED 1944-09-19 09:00:00 TS 19.6526 -83.8898 main 221 203 P_____________ AL081944 19.6526 -83.8898 TS 45 0 9 321
1944263N19276 1944 58 NA CS NOT_NAMED 1944-09-19 12:00:00 TS 20.0000 -84.2000 50 hurdat_atl main 203 167 O_____________ hurdat_atl AL081944 20.0000 -84.2000 TS 50 0 9 318
1944263N19276 1944 58 NA CS NOT_NAMED 1944-09-19 15:00:00 TS 20.3300 -84.5425 main 167 134 P_____________ AL081944 20.3300 -84.5425 TS 55 0 9 312
1944263N19276 1944 58 NA CS NOT_NAMED 1944-09-19 18:00:00 TS 20.6000 -84.9000 60 hurdat_atl main 134 119 O_____________ hurdat_atl AL081944 20.6000 -84.9000 TS 60 0 8 305
1944263N19276 1944 58 NA CS NOT_NAMED 1944-09-19 21:00:00 TS 20.7874 -85.2501 main 123 116 P_____________ AL081944 20.7874 -85.2501 TS 65 1 7 295
1944263N19276 1944 58 NA CS NOT_NAMED 1944-09-20 00:00:00 TS 20.9000 -85.6000 70 hurdat_atl main 116 83 O_____________ hurdat_atl AL081944 20.9000 -85.6000 HU 70 1 7 285
1944263N19276 1944 58 NA CS NOT_NAMED 1944-09-20 03:00:00 TS 20.9648 -85.9351 main 83 42 P_____________ AL081944 20.9648 -85.9351 HU 70 1 7 279
1944263N19276 1944 58 NA CS NOT_NAMED 1944-09-20 06:00:00 TS 21.0000 -86.3000 70 hurdat_atl main 42 0 O_____________ hurdat_atl AL081944 21.0000 -86.3000 HU 70 1 7 278
1944263N19276 1944 58 NA CS NOT_NAMED 1944-09-20 09:00:00 TS 21.0724 -86.7198 main 0 0 P_____________ AL081944 21.0724 -86.7198 HU 65 1 8 277
1944263N19276 1944 58 NA NA NOT_NAMED 1944-09-20 12:00:00 TS 21.1000 -87.2000 60 hurdat_atl main 0 0 O_____________ hurdat_atl AL081944 21.1000 -87.2000 TS 60 0 9 268
1944263N19276 1944 58 NA NA NOT_NAMED 1944-09-20 15:00:00 TS 21.0374 -87.7275 main 0 0 P_____________ AL081944 21.0374 -87.7275 TS 57 0 10 259
1944263N19276 1944 58 NA NA NOT_NAMED 1944-09-20 18:00:00 TS 20.9000 -88.3000 55 hurdat_atl main 0 0 O_____________ hurdat_atl AL081944 20.9000 -88.3000 TS 55 0 11 254
1944263N19276 1944 58 NA NA NOT_NAMED 1944-09-20 21:00:00 TS 20.7224 -88.8925 main 0 0 P_____________ AL081944 20.7224 -88.8925 TS 52 0 12 250
1944263N19276 1944 58 NA NA NOT_NAMED 1944-09-21 00:00:00 TS 20.5000 -89.5000 50 hurdat_atl main 0 0 O_____________ hurdat_atl AL081944 20.5000 -89.5000 TS 50 0 12 249
1944263N19276 1944 58 NA NA NOT_NAMED 1944-09-21 03:00:00 TS 20.2797 -90.0921 main 0 0 P_____________ AL081944 20.2797 -90.0921 TS 57 0 12 246
1944263N19276 1944 58 NA GM NOT_NAMED 1944-09-21 06:00:00 TS 20.0000 -90.7000 65 hurdat_atl main 20 20 O_____________ hurdat_atl AL081944 20.0000 -90.7000 HU 65 1 14 241
1944263N19276 1944 58 NA GM NOT_NAMED 1944-09-21 09:00:00 TS 19.6149 -91.3501 main 61 53 P_____________ AL081944 19.6149 -91.3501 HU 67 1 15 237
1944263N19276 1944 58 NA GM NOT_NAMED 1944-09-21 12:00:00 TS 19.2000 -92.0000 70 hurdat_atl main 62 33 O_____________ hurdat_atl AL081944 19.2000 -92.0000 HU 70 1 14 237
1944263N19276 1944 58 NA GM NOT_NAMED 1944-09-21 15:00:00 TS 18.8350 -92.6373 main 22 15 P_____________ AL081944 18.8350 -92.6373 HU 70 1 13 238
1944263N19276 1944 58 NA GM NOT_NAMED 1944-09-21 18:00:00 TS 18.5000 -93.2000 70 hurdat_atl main 22 0 O_____________ hurdat_atl AL081944 18.5000 -93.2000 HU 70 1 12 237
1944263N19276 1944 58 NA NA NOT_NAMED 1944-09-21 21:00:00 TS 18.1999 -93.6748 main 0 0 P_____________ AL081944 18.1999 -93.6748 HU 65 1 10 232
1944263N19276 1944 58 NA NA NOT_NAMED 1944-09-22 00:00:00 TS 17.9000 -94.0000 60 hurdat_atl main 0 0 O_____________ hurdat_atl AL081944 17.9000 -94.0000 TS 60 0 8 217
1944263N19276 1944 58 NA NA NOT_NAMED 1944-09-22 03:00:00 TS 17.5574 -94.1749 main 0 0 P_____________ AL081944 17.5574 -94.1749 TS 52 0 7 195
1944263N19276 1944 58 NA NA NOT_NAMED 1944-09-22 06:00:00 TS 17.2000 -94.2000 45 hurdat_atl main 0 0 O_____________ hurdat_atl AL081944 17.2000 -94.2000 TS 45 0 7 177
1944263N19276 1944 58 NA NA NOT_NAMED 1944-09-22 09:00:00 TS 16.8476 -94.1249 main 0 0 P_____________ AL081944 16.8476 -94.1249 TS 37 0 7 165
1944263N19276 1944 58 NA NA NOT_NAMED 1944-09-22 12:00:00 TS 16.5000 -94.0000 30 hurdat_atl main 0 O_____________ hurdat_atl AL081944 16.5000 -94.0000 TD 30 -1 7 161

About IBTrACS Database

This database is a web-friendly format of International Best Track Archive for Climate Stewardship (IBTrACS), a global best track data archive curated by NOAA dating back to 1842.

Updated: 2021-12-06